Carmoney, United Kingdom

1:35 AM IST on August 31, 2015 (GMT +0100)
Carndonagh | | Change Station
CLOSE
Current Station
Personal Weather Station
Location: Inishowen, DONEGAL
Elevation: 33 ft
Nearby Weather Stations

Elev 33 ft 55.27 °N, 7.24 °W | Updated 19 seconds ago

Scattered Clouds
Scattered Clouds
49.5 °F
Feels Like 50 °F
N
0.0
Wind Variable Wind from SSE
Gusts 0.0 mph

Today
High -- | Low -- °F
--% Chance of Precip.
Yesterday
High -- | Low -- °F
Precip. -- in
6:32 AM 8:24 PM
Full, 98% visible
Pressure 30.09 in
Visibility 6.2 miles
Clouds Scattered Clouds 3100 ft
Windchill 50 °F
Dew Point 49 °F
Humidity 98%
Rainfall 0.00 in
Snow Depth Not available.
UV 0.0 out of 12
Pollen Not available.
Air Quality Not available.
Flu Activity Not available.
METAR EGAA 310020Z 00000KT 9999 SCT031 11/11 Q1019
Pressure 30.09 in
Visibility 6.2 miles
Clouds Scattered Clouds 3100 ft
Windchill 50 °F
Dew Point 49 °F
Humidity 98%
Rainfall 0.00 in
Snow Depth Not available.
UV 0.0 out of 12
Pollen Not available.
Air Quality Not available.
Flu Activity Not available.
METAR EGAA 310020Z 00000KT 9999 SCT031 11/11 Q1019

10-Day Weather Forecast

×

Almanac

Astronomy

Aug. 31, 2015 Rise Set
Actual Time
Civil Twilight
Nautical Twilight
Astronomical Twilight
Moon
Length of Visible Light
Length of Day
Tomorrow will be .
, % of the Moon is Illuminated

Today's Extremes

Country Highs Country Lows

Community

WunderPhotos

Upload Photos

1,851,111 photos uploaded!

WunderBlogs® & News

Nearby

Air Quality

  Air Quality AQ Index Pollutant
Not available.

Snow Depth

Station Depth Elevation

Earthquake Activity

City Distance Mag. Time & Date
Minimum magnitude displayed is 2.5.

Coastal Water Temperatures

Place Temperature

Stations

Nearby Weather Stations

Station Location Temp. Windchill Dew Point Humidity Wind Precip. Elev Updated Type